Time;durP1;ratioP1;P1;durP2;ratioP2;P2;SDS_P1;SDS_P2;PMS_P1;PMS_P2;Temp;Humidity;BMP_temperature;BMP_pressure;BME280_temperature;BME280_humidity;BME280_pressure;Samples;Min_cycle;Max_cycle;Signal;HPM_P1;HPM_P2
2023/05/31 00:00:27;;;;;;;6.97;5.40;;;13.50;79.20;;;;;;5067720;28;20468;-75
2023/05/31 00:02:55;;;;;;;6.53;5.23;;;13.50;79.30;;;;;;5072577;28;20444;-75
2023/05/31 00:05:23;;;;;;;7.20;5.38;;;13.50;79.60;;;;;;5068511;28;20926;-74
2023/05/31 00:07:50;;;;;;;8.13;5.47;;;13.50;79.60;;;;;;5067038;28;20240;-74
2023/05/31 00:10:17;;;;;;;7.72;6.07;;;13.50;79.70;;;;;;5064810;28;20561;-74
2023/05/31 00:12:44;;;;;;;8.35;6.47;;;13.50;79.80;;;;;;5073287;28;20220;-74
2023/05/31 00:15:11;;;;;;;7.60;5.43;;;13.40;80.00;;;;;;5065784;28;20226;-74
2023/05/31 00:17:38;;;;;;;7.20;5.60;;;13.40;80.10;;;;;;5070669;28;20483;-75
2023/05/31 00:20:07;;;;;;;7.17;6.23;;;13.30;80.30;;;;;;5066530;28;20186;-75
2023/05/31 00:22:34;;;;;;;8.38;5.60;;;13.30;80.30;;;;;;5070491;28;20447;-74
2023/05/31 00:25:01;;;;;;;7.10;4.80;;;13.30;80.50;;;;;;5069354;28;20661;-74
2023/05/31 00:27:28;;;;;;;7.07;4.72;;;13.30;80.70;;;;;;5069214;28;20217;-74
2023/05/31 00:29:55;;;;;;;6.88;5.28;;;13.30;80.30;;;;;;5066672;28;20194;-75
2023/05/31 00:32:23;;;;;;;7.63;4.75;;;13.20;80.10;;;;;;5070503;28;20208;-73
2023/05/31 00:34:50;;;;;;;6.57;4.88;;;13.20;80.50;;;;;;5066642;28;20261;-74
2023/05/31 00:37:18;;;;;;;8.48;5.50;;;13.10;80.50;;;;;;5069477;28;20198;-75
2023/05/31 00:39:47;;;;;;;6.73;4.97;;;13.10;81.10;;;;;;5067820;28;20189;-75
2023/05/31 00:42:15;;;;;;;6.15;4.85;;;13.10;81.90;;;;;;5067029;28;20443;-75
2023/05/31 00:44:42;;;;;;;8.50;5.30;;;13.10;82.90;;;;;;5067387;28;20239;-75
2023/05/31 00:47:09;;;;;;;10.63;6.20;;;13.20;83.50;;;;;;5068932;28;20672;-74
2023/05/31 00:49:38;;;;;;;7.15;5.47;;;13.20;83.60;;;;;;5072339;28;20443;-74
2023/05/31 00:52:06;;;;;;;8.80;4.93;;;13.30;84.10;;;;;;5067547;28;20195;-75
2023/05/31 00:54:35;;;;;;;10.63;5.82;;;13.40;84.20;;;;;;5069519;28;20529;-75
2023/05/31 00:57:02;;;;;;;6.37;4.90;;;13.40;84.00;;;;;;5068116;28;20240;-75
2023/05/31 00:59:29;;;;;;;7.90;5.43;;;13.40;83.60;;;;;;5066656;28;20543;-75
2023/05/31 01:02:02;;;;;;;12.50;4.90;;;13.40;83.00;;;;;;5067276;28;20440;-74
2023/05/31 01:04:29;;;;;;;6.90;5.00;;;13.40;82.00;;;;;;5071445;28;20201;-75
2023/05/31 01:06:56;;;;;;;7.83;5.47;;;13.40;81.80;;;;;;5069434;28;20450;-74
2023/05/31 01:09:30;;;;;;;7.15;5.57;;;13.30;81.30;;;;;;5066290;28;20455;-75
2023/05/31 01:12:11;;;;;;;6.93;5.20;;;13.30;81.30;;;;;;5065801;28;20189;-74
2023/05/31 01:14:53;;;;;;;7.47;6.33;;;13.20;81.40;;;;;;5067389;28;20475;-75
2023/05/31 01:17:30;;;;;;;11.53;6.90;;;13.20;82.00;;;;;;5069438;28;20826;-75
2023/05/31 01:20:01;;;;;;;8.23;5.80;;;13.20;82.30;;;;;;5069296;28;20500;-75
2023/05/31 01:22:42;;;;;;;9.18;5.72;;;13.20;82.60;;;;;;5062999;28;20435;-75
2023/05/31 01:25:32;;;;;;;8.40;5.40;;;13.20;83.00;;;;;;5066912;28;20181;-74
2023/05/31 01:28:04;;;;;;;8.57;5.85;;;13.30;83.30;;;;;;5069661;28;20194;-74
2023/05/31 01:30:33;;;;;;;6.90;5.40;;;13.30;82.90;;;;;;5067794;28;20202;-74
2023/05/31 01:33:01;;;;;;;7.50;5.53;;;13.30;82.00;;;;;;5064877;28;20644;-74
2023/05/31 01:35:28;;;;;;;7.43;5.75;;;13.20;81.30;;;;;;5064389;28;20484;-75
2023/05/31 01:37:55;;;;;;;8.90;6.22;;;13.20;81.00;;;;;;5069843;28;20204;-75
2023/05/31 01:40:25;;;;;;;6.90;5.85;;;13.10;82.00;;;;;;5069917;28;20185;-74
2023/05/31 01:42:53;;;;;;;8.18;5.63;;;13.00;82.20;;;;;;5070654;28;20194;-74
2023/05/31 01:45:23;;;;;;;10.20;6.28;;;13.00;82.30;;;;;;5068025;28;20198;-74
2023/05/31 01:47:54;;;;;;;7.65;5.75;;;13.00;82.10;;;;;;5072417;28;20272;-74
2023/05/31 01:50:22;;;;;;;8.20;5.22;;;12.90;81.80;;;;;;5070505;28;20190;-74
2023/05/31 01:52:50;;;;;;;8.43;5.53;;;12.80;82.30;;;;;;5067955;28;20198;-74
2023/05/31 01:55:18;;;;;;;8.10;5.30;;;12.90;82.60;;;;;;5071274;28;20578;-74
2023/05/31 01:57:47;;;;;;;6.90;5.20;;;12.80;82.20;;;;;;5073647;28;20190;-75
2023/05/31 02:00:15;;;;;;;7.15;4.95;;;12.70;82.00;;;;;;5067930;28;20564;-74
2023/05/31 02:02:44;;;;;;;14.85;6.97;;;12.70;82.70;;;;;;5072403;28;20212;-75
2023/05/31 02:05:13;;;;;;;5.97;4.45;;;12.60;82.50;;;;;;5069239;28;20259;-74
2023/05/31 02:07:41;;;;;;;7.00;5.07;;;12.60;82.60;;;;;;5068886;28;20192;-75
2023/05/31 02:10:09;;;;;;;9.15;6.20;;;12.60;82.10;;;;;;5071328;28;20281;-74
2023/05/31 02:12:37;;;;;;;9.85;6.10;;;12.50;82.10;;;;;;5071651;28;20719;-74
2023/05/31 02:15:12;;;;;;;10.32;6.25;;;12.40;83.70;;;;;;5072036;28;20229;-75
2023/05/31 02:17:42;;;;;;;8.18;6.07;;;12.40;84.00;;;;;;5075533;28;20284;-74
2023/05/31 02:20:12;;;;;;;10.00;6.25;;;12.30;84.30;;;;;;5071815;28;20218;-74
2023/05/31 02:22:40;;;;;;;8.85;5.60;;;12.30;84.90;;;;;;5072204;28;20701;-74
2023/05/31 02:25:09;;;;;;;11.80;7.80;;;12.30;85.70;;;;;;5071161;28;20255;-75
2023/05/31 02:27:36;;;;;;;10.35;5.85;;;12.30;86.20;;;;;;5071401;28;20255;-74
2023/05/31 02:30:07;;;;;;;7.80;5.53;;;12.30;86.00;;;;;;5070596;28;20187;-75
2023/05/31 02:32:37;;;;;;;11.65;5.55;;;12.30;86.10;;;;;;5071649;28;20288;-75
2023/05/31 02:35:05;;;;;;;9.82;6.35;;;12.30;86.40;;;;;;5071493;28;20225;-75
2023/05/31 02:37:34;;;;;;;10.45;6.00;;;12.20;86.50;;;;;;5071780;28;20225;-74
2023/05/31 02:40:16;;;;;;;11.75;6.50;;;12.20;85.60;;;;;;5071148;28;20255;-74
2023/05/31 02:42:44;;;;;;;8.68;6.50;;;12.20;86.00;;;;;;5074293;28;20293;-74
2023/05/31 02:45:11;;;;;;;8.32;6.28;;;12.10;86.50;;;;;;5069245;28;20190;-75
2023/05/31 02:47:39;;;;;;;9.38;6.30;;;12.10;86.50;;;;;;5070566;28;20224;-74
2023/05/31 02:50:09;;;;;;;9.38;6.80;;;12.00;86.20;;;;;;5070861;28;20194;-74
2023/05/31 02:52:37;;;;;;;7.28;5.50;;;11.90;86.00;;;;;;5068595;28;20225;-75
2023/05/31 02:55:06;;;;;;;11.82;6.07;;;11.90;86.20;;;;;;5070353;28;20222;-74
2023/05/31 02:57:39;;;;;;;7.88;5.85;;;11.90;86.50;;;;;;5068726;28;20236;-75
2023/05/31 03:00:12;;;;;;;11.93;7.25;;;11.80;86.20;;;;;;5071006;28;20252;-75
2023/05/31 03:02:39;;;;;;;8.50;6.53;;;11.80;86.60;;;;;;5067245;28;20711;-75
2023/05/31 03:05:08;;;;;;;6.85;5.78;;;11.80;87.30;;;;;;5070311;28;20202;-74
2023/05/31 03:07:37;;;;;;;7.20;5.43;;;11.70;87.00;;;;;;5071310;28;20577;-75
2023/05/31 03:10:06;;;;;;;9.02;6.03;;;11.60;87.80;;;;;;5070198;28;20193;-74
2023/05/31 03:12:33;;;;;;;7.32;6.47;;;11.50;88.80;;;;;;5064154;28;20201;-76
2023/05/31 03:15:00;;;;;;;7.47;6.57;;;11.50;89.90;;;;;;5070401;28;20217;-74
2023/05/31 03:17:27;;;;;;;9.15;6.00;;;11.50;90.10;;;;;;5071311;28;20271;-74
2023/05/31 03:19:54;;;;;;;6.97;5.65;;;11.50;90.40;;;;;;5067591;28;20197;-74
2023/05/31 03:22:23;;;;;;;8.60;5.72;;;11.50;90.20;;;;;;5067198;28;20194;-75
2023/05/31 03:24:51;;;;;;;9.68;7.38;;;11.50;90.10;;;;;;5069523;28;20625;-75
2023/05/31 03:27:18;;;;;;;9.10;7.30;;;11.50;89.60;;;;;;5070705;28;20209;-74
2023/05/31 03:29:45;;;;;;;6.95;5.55;;;11.50;89.80;;;;;;5070149;28;20670;-74
2023/05/31 03:32:12;;;;;;;7.57;6.28;;;11.50;90.10;;;;;;5072577;28;20292;-74
2023/05/31 03:34:40;;;;;;;12.52;6.55;;;11.50;89.90;;;;;;5069328;28;20229;-74
2023/05/31 03:37:07;;;;;;;9.57;6.25;;;11.40;89.00;;;;;;5069274;28;20312;-74
2023/05/31 03:39:34;;;;;;;7.93;6.05;;;11.40;89.80;;;;;;5074188;28;20193;-75
2023/05/31 03:42:03;;;;;;;7.45;5.88;;;11.40;90.00;;;;;;5069787;28;20190;-74
2023/05/31 03:44:31;;;;;;;9.57;6.05;;;11.40;90.00;;;;;;5066916;28;20196;-75
2023/05/31 03:47:00;;;;;;;6.95;5.30;;;11.40;90.00;;;;;;5070324;28;20549;-75
2023/05/31 03:49:27;;;;;;;10.73;6.18;;;11.40;89.80;;;;;;5065538;28;20186;-75
2023/05/31 03:51:54;;;;;;;22.30;6.80;;;11.40;90.00;;;;;;5067500;28;20190;-74
2023/05/31 03:54:26;;;;;;;5.80;4.95;;;11.40;90.20;;;;;;5063363;28;20236;-74
2023/05/31 03:56:58;;;;;;;6.47;5.30;;;11.40;90.00;;;;;;5069922;28;20222;-75
2023/05/31 03:59:26;;;;;;;8.95;5.35;;;11.40;90.10;;;;;;5069285;28;20195;-74
2023/05/31 04:01:56;;;;;;;8.10;5.10;;;11.40;90.10;;;;;;5068400;28;20526;-74
2023/05/31 04:04:24;;;;;;;8.50;6.20;;;11.40;90.20;;;;;;5070000;28;20237;-74
2023/05/31 04:06:54;;;;;;;8.90;5.50;;;11.40;90.30;;;;;;5072709;28;20193;-74
2023/05/31 04:09:21;;;;;;;6.53;4.93;;;11.40;90.30;;;;;;5069849;28;20190;-74
2023/05/31 04:11:50;;;;;;;8.07;5.90;;;11.50;90.40;;;;;;5069753;28;20220;-74
2023/05/31 04:14:17;;;;;;;7.05;5.00;;;11.50;90.30;;;;;;5070309;28;20619;-75
2023/05/31 04:16:46;;;;;;;9.55;5.40;;;11.50;90.30;;;;;;5065458;28;20257;-75
2023/05/31 04:19:14;;;;;;;6.85;5.45;;;11.50;90.40;;;;;;5069318;28;20213;-74
2023/05/31 04:21:41;;;;;;;9.30;6.05;;;11.50;90.50;;;;;;5066819;28;20206;-74
2023/05/31 04:24:08;;;;;;;10.20;6.60;;;11.50;90.80;;;;;;5068668;28;20293;-74
2023/05/31 04:26:37;;;;;;;7.70;5.38;;;11.60;90.90;;;;;;5067831;28;20443;-75
2023/05/31 04:29:04;;;;;;;9.55;6.10;;;11.70;91.00;;;;;;5071686;28;20228;-74
2023/05/31 04:31:35;;;;;;;12.63;5.80;;;11.70;91.10;;;;;;5069641;28;20205;-74
2023/05/31 04:34:04;;;;;;;6.70;4.50;;;11.80;91.20;;;;;;5067992;28;20233;-75
2023/05/31 04:36:36;;;;;;;8.02;5.75;;;11.90;91.10;;;;;;5067985;28;20225;-74
2023/05/31 04:39:12;;;;;;;6.57;5.20;;;11.90;91.10;;;;;;5066763;28;20195;-75
2023/05/31 04:41:39;;;;;;;7.55;5.60;;;12.00;91.20;;;;;;5066993;28;20193;-76
2023/05/31 04:44:07;;;;;;;7.70;6.25;;;12.10;91.30;;;;;;5068674;28;20193;-74
2023/05/31 04:46:34;;;;;;;7.50;5.38;;;12.10;91.40;;;;;;5072415;28;20225;-75
2023/05/31 04:49:01;;;;;;;12.40;5.93;;;12.20;91.40;;;;;;5070427;28;20200;-74
2023/05/31 04:51:30;;;;;;;6.55;5.05;;;12.20;91.40;;;;;;5069083;28;20193;-74
2023/05/31 04:53:58;;;;;;;6.20;5.35;;;12.30;91.60;;;;;;5068515;28;20671;-75
2023/05/31 04:56:27;;;;;;;10.20;5.63;;;12.50;91.60;;;;;;5068897;28;20663;-74
2023/05/31 04:58:54;;;;;;;7.53;4.93;;;12.50;91.70;;;;;;5065695;28;20602;-74
2023/05/31 05:01:31;;;;;;;11.18;6.53;;;12.60;91.70;;;;;;5068902;28;20239;-75
2023/05/31 05:03:58;;;;;;;11.17;6.10;;;12.80;91.80;;;;;;5070113;28;20194;-75
2023/05/31 05:06:26;;;;;;;9.73;5.70;;;12.90;92.10;;;;;;5069558;28;20547;-75
2023/05/31 05:08:54;;;;;;;8.87;6.00;;;13.10;92.30;;;;;;5066150;28;20186;-75
2023/05/31 05:11:26;;;;;;;10.57;5.23;;;13.20;92.40;;;;;;5068550;28;20536;-75
2023/05/31 05:13:54;;;;;;;10.02;5.63;;;13.30;92.10;;;;;;5072171;28;20436;-75
2023/05/31 05:16:21;;;;;;;6.33;4.40;;;13.40;91.80;;;;;;5073765;28;20626;-75
2023/05/31 05:18:48;;;;;;;5.67;4.50;;;13.50;91.20;;;;;;5073304;28;20451;-75
2023/05/31 05:21:15;;;;;;;12.00;4.83;;;13.60;90.10;;;;;;5068662;28;20497;-76
2023/05/31 05:23:42;;;;;;;5.13;4.10;;;13.70;89.50;;;;;;5072029;28;20982;-75
2023/05/31 05:26:11;;;;;;;10.57;4.77;;;13.90;88.50;;;;;;5068402;28;20508;-74
2023/05/31 05:28:38;;;;;;;8.83;4.60;;;14.00;88.40;;;;;;5063962;28;20445;-74
2023/05/31 05:31:05;;;;;;;8.73;4.53;;;14.10;87.10;;;;;;5066829;28;20443;-76
2023/05/31 05:33:33;;;;;;;10.27;4.53;;;14.30;86.60;;;;;;5069822;28;20456;-75
2023/05/31 05:36:01;;;;;;;7.13;3.93;;;14.30;85.70;;;;;;5066197;28;20475;-75
2023/05/31 05:38:28;;;;;;;8.80;3.93;;;14.50;85.10;;;;;;5069673;28;20505;-75
2023/05/31 05:40:55;;;;;;;5.77;3.80;;;14.60;84.20;;;;;;5066829;28;20469;-74
2023/05/31 05:43:24;;;;;;;6.97;4.07;;;14.70;83.20;;;;;;5063123;28;21075;-75
2023/05/31 05:45:53;;;;;;;6.00;4.20;;;14.90;81.80;;;;;;5061517;28;20437;-74
2023/05/31 05:48:21;;;;;;;6.40;3.83;;;15.00;81.40;;;;;;5060577;28;20444;-75
2023/05/31 05:50:48;;;;;;;8.10;4.90;;;15.10;81.00;;;;;;5070402;28;20487;-75
2023/05/31 05:53:20;;;;;;;7.20;4.30;;;15.10;79.90;;;;;;5067873;28;20448;-75
2023/05/31 05:55:52;;;;;;;5.30;3.57;;;15.30;80.00;;;;;;5063473;28;20914;-75
2023/05/31 05:58:22;;;;;;;6.30;4.20;;;15.40;79.00;;;;;;5064462;28;20444;-75
2023/05/31 06:00:50;;;;;;;9.67;3.90;;;15.40;78.00;;;;;;5064069;28;20432;-75
2023/05/31 06:03:17;;;;;;;16.20;4.00;;;15.60;78.00;;;;;;5067428;28;20445;-78
2023/05/31 06:05:45;;;;;;;7.70;4.43;;;15.70;76.60;;;;;;5065368;28;20501;-76
2023/05/31 06:08:12;;;;;;;6.87;4.50;;;15.80;76.60;;;;;;5061986;28;20574;-75
2023/05/31 06:10:40;;;;;;;6.50;4.67;;;15.80;76.20;;;;;;5068815;28;20892;-76
2023/05/31 06:13:08;;;;;;;9.40;4.23;;;16.00;75.40;;;;;;5061354;28;20428;-75
2023/05/31 06:15:35;;;;;;;5.23;4.43;;;16.00;75.20;;;;;;5066555;28;20498;-75
2023/05/31 06:18:03;;;;;;;13.10;4.27;;;16.10;74.40;;;;;;5074421;28;20475;-75
2023/05/31 06:20:30;;;;;;;8.70;4.87;;;16.20;74.30;;;;;;5075872;28;20444;-75
2023/05/31 06:22:57;;;;;;;6.60;4.13;;;16.30;73.00;;;;;;5077216;28;20466;-76
2023/05/31 06:25:24;;;;;;;6.60;4.20;;;16.30;73.00;;;;;;5077403;28;20463;-75
2023/05/31 06:27:51;;;;;;;9.23;4.50;;;16.40;71.50;;;;;;5077269;28;20446;-74
2023/05/31 06:30:18;;;;;;;7.37;4.50;;;16.40;71.30;;;;;;5077501;28;20440;-76
2023/05/31 06:32:45;;;;;;;12.53;4.20;;;16.50;71.60;;;;;;5077418;28;20463;-75
2023/05/31 06:35:14;;;;;;;6.93;4.50;;;16.70;72.00;;;;;;5077015;28;20890;-75
2023/05/31 06:37:42;;;;;;;9.60;4.60;;;16.80;72.10;;;;;;5077643;28;20519;-75
2023/05/31 06:40:10;;;;;;;11.30;4.10;;;16.90;70.80;;;;;;5077371;28;20473;-78
2023/05/31 06:42:37;;;;;;;10.67;4.67;;;17.00;69.30;;;;;;5076027;28;20444;-75
2023/05/31 06:45:05;;;;;;;4.90;3.97;;;17.10;68.50;;;;;;5076868;28;20763;-76
2023/05/31 06:47:32;;;;;;;7.90;5.60;;;17.10;68.40;;;;;;5077546;28;20464;-76
2023/05/31 06:49:59;;;;;;;7.87;4.27;;;17.30;68.10;;;;;;5077811;28;20801;-76
2023/05/31 06:52:28;;;;;;;6.30;4.00;;;17.30;67.10;;;;;;5077286;28;20505;-75
2023/05/31 06:54:55;;;;;;;5.37;3.67;;;17.40;67.10;;;;;;5077183;28;20435;-76
2023/05/31 06:57:23;;;;;;;7.90;4.67;;;17.50;68.00;;;;;;5076319;28;20523;-75
2023/05/31 06:59:50;;;;;;;6.70;3.80;;;17.70;67.60;;;;;;5077308;28;20436;-76
2023/05/31 07:02:17;;;;;;;6.70;3.80;;;17.80;65.50;;;;;;5076936;28;20864;-76
2023/05/31 07:04:45;;;;;;;5.83;3.40;;;17.80;66.20;;;;;;5076760;28;20467;-76
2023/05/31 07:07:12;;;;;;;6.53;3.80;;;18.00;65.80;;;;;;5077389;28;20432;-75
2023/05/31 07:09:41;;;;;;;6.67;4.00;;;18.00;65.50;;;;;;5077025;28;20436;-76
2023/05/31 07:12:08;;;;;;;6.40;3.13;;;18.10;65.70;;;;;;5077596;28;20842;-76
2023/05/31 07:14:35;;;;;;;6.50;3.10;;;18.30;65.00;;;;;;5077418;28;20487;-76
2023/05/31 07:17:03;;;;;;;5.87;3.67;;;18.40;63.20;;;;;;5076578;28;20487;-76
2023/05/31 07:19:30;;;;;;;8.73;4.10;;;18.40;61.60;;;;;;5077023;28;20930;-76
2023/05/31 07:21:57;;;;;;;6.23;3.53;;;18.50;62.00;;;;;;5076778;28;20468;-76
2023/05/31 07:24:25;;;;;;;5.33;3.67;;;18.60;61.70;;;;;;5076114;28;20429;-75
2023/05/31 07:26:54;;;;;;;6.03;4.10;;;18.70;61.90;;;;;;5076266;28;20472;-75
2023/05/31 07:29:21;;;;;;;9.27;3.87;;;18.80;61.80;;;;;;5076767;28;20919;-75
2023/05/31 07:31:48;;;;;;;6.10;4.03;;;19.00;62.30;;;;;;5075293;28;20497;-76
2023/05/31 07:34:15;;;;;;;6.80;3.70;;;19.10;63.30;;;;;;5074864;28;20773;-76
2023/05/31 07:36:43;;;;;;;6.43;3.30;;;19.20;62.90;;;;;;5073484;28;20540;-76
2023/05/31 07:39:10;;;;;;;8.70;4.33;;;19.40;63.50;;;;;;5075253;28;20451;-76
2023/05/31 07:41:37;;;;;;;8.03;3.80;;;19.50;62.40;;;;;;5074898;28;20869;-76
2023/05/31 07:44:06;;;;;;;6.87;4.20;;;19.70;59.90;;;;;;5074360;28;20489;-75
2023/05/31 07:46:33;;;;;;;5.50;3.33;;;19.80;59.50;;;;;;5074970;28;20436;-76
2023/05/31 07:48:59;;;;;;;8.90;3.70;;;20.00;60.40;;;;;;5074620;28;20949;-75
2023/05/31 07:51:29;;;;;;;6.60;4.40;;;20.10;59.00;;;;;;5074804;28;20502;-75
2023/05/31 07:53:56;;;;;;;7.43;4.03;;;20.20;58.20;;;;;;5074845;28;20472;-76
2023/05/31 07:56:23;;;;;;;5.03;3.33;;;20.30;57.00;;;;;;5074089;28;20493;-76
2023/05/31 07:58:51;;;;;;;6.37;3.80;;;20.30;56.90;;;;;;5073974;28;20530;-76
2023/05/31 08:01:19;;;;;;;12.63;4.57;;;20.40;56.20;;;;;;5074317;28;20432;-76
2023/05/31 08:03:46;;;;;;;10.10;4.57;;;20.50;56.40;;;;;;5074697;28;20813;-76
2023/05/31 08:06:13;;;;;;;7.17;3.37;;;20.60;55.10;;;;;;5074554;28;20934;-76
2023/05/31 08:08:42;;;;;;;8.87;3.90;;;20.70;55.30;;;;;;5074353;28;20472;-76
2023/05/31 08:11:09;;;;;;;7.00;3.33;;;20.80;55.40;;;;;;5074004;28;20553;-76
2023/05/31 08:13:35;;;;;;;7.60;4.20;;;21.00;54.50;;;;;;5074158;28;20470;-75
2023/05/31 08:16:02;;;;;;;7.97;3.83;;;21.10;52.50;;;;;;5074266;28;20922;-76
2023/05/31 08:18:31;;;;;;;7.67;4.30;;;21.10;53.90;;;;;;5074251;28;20487;-76
2023/05/31 08:20:58;;;;;;;9.13;3.60;;;21.20;53.30;;;;;;5074183;28;20585;-76
2023/05/31 08:23:25;;;;;;;7.47;3.90;;;21.30;54.20;;;;;;5073891;28;20440;-76
2023/05/31 08:25:53;;;;;;;6.03;4.30;;;21.40;51.70;;;;;;5074679;28;20463;-73
2023/05/31 08:28:19;;;;;;;8.50;3.73;;;21.50;52.60;;;;;;5073962;28;20473;-73
2023/05/31 08:30:48;;;;;;;9.90;3.97;;;21.60;53.60;;;;;;5073996;28;20471;-74
2023/05/31 08:33:15;;;;;;;6.20;3.40;;;21.70;52.00;;;;;;5073991;28;20440;-74
2023/05/31 08:35:43;;;;;;;5.30;3.20;;;21.90;52.10;;;;;;5073221;28;20436;-74
2023/05/31 08:38:10;;;;;;;5.80;3.70;;;22.00;50.30;;;;;;5073744;28;20566;-74
2023/05/31 08:40:37;;;;;;;6.00;3.77;;;22.10;49.90;;;;;;5073564;28;20436;-74
2023/05/31 08:43:09;;;;;;;5.53;3.57;;;22.20;48.70;;;;;;5073534;28;20784;-74
2023/05/31 08:45:36;;;;;;;7.10;3.50;;;22.20;49.80;;;;;;5073696;28;20979;-74
2023/05/31 08:48:10;;;;;;;5.73;3.07;;;22.20;49.50;;;;;;5073446;28;20494;-74
2023/05/31 08:50:37;;;;;;;5.90;2.87;;;22.30;48.50;;;;;;5074249;28;20787;-74
2023/05/31 08:53:07;;;;;;;5.30;3.40;;;22.40;48.50;;;;;;5073550;28;20436;-74
2023/05/31 08:55:36;;;;;;;5.10;2.93;;;22.50;46.70;;;;;;5073639;28;20443;-74
2023/05/31 08:58:04;;;;;;;7.40;3.70;;;22.60;45.00;;;;;;5073736;28;21029;-73
2023/05/31 09:00:32;;;;;;;5.90;3.23;;;22.50;45.70;;;;;;5073427;28;20468;-74
2023/05/31 09:03:00;;;;;;;4.43;2.60;;;22.60;46.50;;;;;;5073350;28;20467;-75
2023/05/31 09:05:27;;;;;;;4.67;2.70;;;22.70;45.30;;;;;;5073558;28;20779;-75
2023/05/31 09:07:54;;;;;;;7.20;2.73;;;22.70;45.00;;;;;;5073081;28;20475;-75
2023/05/31 09:10:22;;;;;;;6.93;3.13;;;22.80;45.80;;;;;;5073656;28;20484;-74
2023/05/31 09:12:49;;;;;;;4.40;2.60;;;22.90;43.90;;;;;;5070952;28;20497;-74
2023/05/31 09:15:17;;;;;;;6.10;3.43;;;22.90;43.30;;;;;;5066362;28;20487;-76
2023/05/31 09:17:45;;;;;;;9.10;4.37;;;22.90;41.80;;;;;;5065700;28;20491;-75
2023/05/31 09:20:13;;;;;;;6.40;3.20;;;23.00;41.50;;;;;;5067619;28;20943;-75
2023/05/31 09:22:40;;;;;;;4.80;3.10;;;23.10;41.80;;;;;;5068475;28;20452;-75
2023/05/31 09:25:08;;;;;;;5.93;2.60;;;23.20;42.40;;;;;;5068269;28;20471;-74
2023/05/31 09:27:40;;;;;;;5.63;3.27;;;23.30;41.10;;;;;;5064720;28;20478;-75
2023/05/31 09:30:09;;;;;;;6.70;2.97;;;23.40;42.20;;;;;;5065117;28;20489;-76
2023/05/31 09:32:37;;;;;;;17.23;4.17;;;23.50;42.20;;;;;;5064855;28;20524;-75
2023/05/31 09:35:12;;;;;;;5.57;3.07;;;23.60;41.70;;;;;;5063878;28;20936;-76
2023/05/31 09:37:44;;;;;;;8.70;3.27;;;23.70;40.90;;;;;;5064809;28;20584;-76
2023/05/31 09:40:15;;;;;;;4.10;2.83;;;23.60;40.30;;;;;;5063503;28;20444;-76
2023/05/31 09:42:51;;;;;;;4.97;3.03;;;23.70;40.80;;;;;;5065107;28;20475;-75
2023/05/31 09:45:19;;;;;;;9.23;3.60;;;23.70;41.70;;;;;;5068104;28;20482;-76
2023/05/31 09:47:47;;;;;;;8.40;3.33;;;23.80;41.00;;;;;;5068234;28;20484;-76
2023/05/31 09:50:17;;;;;;;6.00;3.00;;;23.80;40.30;;;;;;5068375;28;20477;-76
2023/05/31 09:52:45;;;;;;;6.63;2.90;;;23.80;40.00;;;;;;5067646;28;20447;-75
2023/05/31 09:55:13;;;;;;;8.03;3.53;;;23.80;40.10;;;;;;5064601;28;20524;-75
2023/05/31 09:57:41;;;;;;;4.17;2.70;;;23.90;41.00;;;;;;5064679;28;20519;-75
2023/05/31 10:00:14;;;;;;;6.70;3.03;;;24.00;40.90;;;;;;5065761;28;20479;-75
2023/05/31 10:02:42;;;;;;;6.27;2.77;;;24.00;39.80;;;;;;5068161;28;20447;-76
2023/05/31 10:05:11;;;;;;;6.80;3.27;;;24.10;39.40;;;;;;5067178;28;20443;-75
2023/05/31 10:07:39;;;;;;;7.97;3.43;;;24.10;39.60;;;;;;5071348;28;20440;-76
2023/05/31 10:10:07;;;;;;;10.20;3.40;;;24.20;38.60;;;;;;5067609;28;20990;-76
2023/05/31 10:12:40;;;;;;;7.23;3.33;;;24.20;40.00;;;;;;5071203;28;20447;-76
2023/05/31 10:15:13;;;;;;;6.93;3.27;;;24.20;39.50;;;;;;5071289;28;20452;-76
2023/05/31 10:17:46;;;;;;;4.17;2.60;;;24.30;39.60;;;;;;5070972;28;20535;-76
2023/05/31 10:20:16;;;;;;;4.93;2.97;;;24.40;39.00;;;;;;5066662;28;20472;-76
2023/05/31 10:22:45;;;;;;;4.70;3.07;;;24.40;39.10;;;;;;5071564;28;20472;-76
2023/05/31 10:25:19;;;;;;;7.43;3.00;;;24.50;40.00;;;;;;5067052;28;20454;-76
2023/05/31 10:27:50;;;;;;;8.50;2.53;;;24.60;39.40;;;;;;5063973;28;20437;-76
2023/05/31 10:30:25;;;;;;;5.03;2.67;;;24.60;40.20;;;;;;5071539;28;20486;-75
2023/05/31 10:32:57;;;;;;;5.30;2.33;;;24.70;40.30;;;;;;5070637;28;20447;-75
2023/05/31 10:35:28;;;;;;;5.03;3.17;;;24.80;38.60;;;;;;5068876;28;20479;-76
2023/05/31 10:37:56;;;;;;;5.23;2.77;;;24.80;39.30;;;;;;5072762;28;20511;-75
2023/05/31 10:40:29;;;;;;;5.13;2.73;;;24.80;39.00;;;;;;5067782;28;20468;-76
2023/05/31 10:43:01;;;;;;;7.70;3.33;;;24.80;39.70;;;;;;5071097;28;20440;-75
2023/05/31 10:45:36;;;;;;;6.50;2.83;;;24.90;38.70;;;;;;5070605;28;20471;-75
2023/05/31 10:48:11;;;;;;;5.10;3.10;;;24.90;40.40;;;;;;5069191;28;20432;-75
2023/05/31 10:50:53;;;;;;;4.40;2.60;;;25.00;38.70;;;;;;5073485;28;20478;-75
2023/05/31 10:53:20;;;;;;;7.23;3.50;;;25.00;39.10;;;;;;5071202;28;20471;-75
2023/05/31 10:55:48;;;;;;;5.53;3.80;;;25.10;40.30;;;;;;5062935;28;20475;-76
2023/05/31 10:58:29;;;;;;;8.20;3.60;;;25.10;39.50;;;;;;5070285;28;20574;-76
2023/05/31 11:01:03;;;;;;;6.20;2.80;;;25.20;39.70;;;;;;5069561;28;20860;-76
2023/05/31 11:03:31;;;;;;;5.77;3.10;;;25.30;41.90;;;;;;5070708;28;20451;-75
2023/05/31 11:06:00;;;;;;;6.20;3.13;;;25.40;39.90;;;;;;5068195;28;20440;-75
2023/05/31 11:08:27;;;;;;;6.00;3.20;;;25.40;38.80;;;;;;5067533;28;20518;-75
2023/05/31 11:11:29;;;;;;;6.10;3.07;;;25.40;39.30;;;;;;5069075;28;20965;-75
2023/05/31 11:14:00;;;;;;;6.40;3.40;;;25.50;39.00;;;;;;5057669;28;20441;-75
2023/05/31 11:16:32;;;;;;;4.60;2.90;;;25.60;36.70;;;;;;5065913;28;20436;-74
2023/05/31 11:19:06;;;;;;;6.30;3.30;;;25.50;37.70;;;;;;5069578;28;20513;-75
2023/05/31 11:21:50;;;;;;;6.40;2.83;;;25.60;39.00;;;;;;5067944;28;20846;-76
2023/05/31 11:24:28;;;;;;;6.40;2.70;;;25.50;39.40;;;;;;5069757;28;20448;-76
2023/05/31 11:26:56;;;;;;;8.60;3.90;;;25.60;38.50;;;;;;5069322;28;20459;-76
2023/05/31 11:29:23;;;;;;;5.07;3.00;;;25.70;39.80;;;;;;5065607;28;20441;-75
2023/05/31 11:32:01;;;;;;;5.13;2.80;;;25.80;39.40;;;;;;5064019;28;20476;-76
2023/05/31 11:34:33;;;;;;;5.13;2.80;;;25.80;38.20;;;;;;5065147;28;20525;-75
2023/05/31 11:37:02;;;;;;;5.50;3.00;;;25.90;38.50;;;;;;5068767;28;20456;-76
2023/05/31 11:39:29;;;;;;;5.47;3.20;;;25.90;39.50;;;;;;5068407;28;20491;-75
2023/05/31 11:41:57;;;;;;;5.40;2.80;;;26.00;37.70;;;;;;5072186;28;20464;-76
2023/05/31 11:44:29;;;;;;;9.27;3.37;;;26.00;38.40;;;;;;5072081;28;20531;-76
2023/05/31 11:47:02;;;;;;;7.97;3.00;;;26.00;37.40;;;;;;5064320;28;20466;-75
2023/05/31 11:49:30;;;;;;;4.70;2.83;;;26.10;35.90;;;;;;5065385;28;20924;-75
2023/05/31 11:51:59;;;;;;;8.33;3.20;;;26.10;36.40;;;;;;5066189;28;20440;-76
2023/05/31 11:54:29;;;;;;;6.00;3.03;;;26.00;36.70;;;;;;5065315;28;20853;-76
2023/05/31 11:57:03;;;;;;;6.90;3.43;;;26.00;38.30;;;;;;5065783;28;20527;-75
2023/05/31 11:59:33;;;;;;;7.30;3.07;;;26.10;37.10;;;;;;5065231;28;20479;-75
2023/05/31 12:02:03;;;;;;;6.37;4.40;;;26.10;37.10;;;;;;5065987;28;20444;-76
2023/05/31 12:04:35;;;;;;;10.03;2.90;;;26.00;35.20;;;;;;5065561;28;20448;-76
2023/05/31 12:07:12;;;;;;;7.23;3.07;;;26.00;36.20;;;;;;5065868;28;20443;-74
2023/05/31 12:09:39;;;;;;;9.13;3.10;;;26.00;36.30;;;;;;5067267;28;20474;-76
2023/05/31 12:12:07;;;;;;;6.70;3.17;;;26.00;36.60;;;;;;5069370;28;20511;-76
2023/05/31 12:14:35;;;;;;;8.73;3.40;;;26.00;37.10;;;;;;5068805;28;20825;-75
2023/05/31 12:17:04;;;;;;;7.27;3.33;;;26.00;36.50;;;;;;5069421;28;20475;-75
2023/05/31 12:19:31;;;;;;;7.07;3.03;;;26.00;36.70;;;;;;5064870;28;20483;-75
2023/05/31 12:21:58;;;;;;;5.57;3.07;;;26.00;36.70;;;;;;5068240;28;20819;-76
2023/05/31 12:24:25;;;;;;;5.90;3.00;;;26.00;36.20;;;;;;5068642;28;20478;-76
2023/05/31 12:26:55;;;;;;;6.97;3.67;;;26.10;38.00;;;;;;5068715;28;21064;-74
2023/05/31 12:29:28;;;;;;;6.03;3.00;;;26.10;36.10;;;;;;5068798;28;20481;-74
2023/05/31 12:32:03;;;;;;;7.23;3.33;;;26.10;36.70;;;;;;5067440;28;20440;-75
2023/05/31 12:34:33;;;;;;;4.33;2.67;;;26.10;37.20;;;;;;5068981;28;20505;-75
2023/05/31 12:37:06;;;;;;;6.67;3.10;;;26.20;36.40;;;;;;5068778;28;20501;-75
2023/05/31 12:39:33;;;;;;;6.47;2.60;;;26.20;37.00;;;;;;5065156;28;20961;-75
2023/05/31 12:42:06;;;;;;;8.17;2.90;;;26.30;36.60;;;;;;5063925;28;20444;-75
2023/05/31 12:44:34;;;;;;;6.00;2.87;;;26.30;36.60;;;;;;5068713;28;20458;-75
2023/05/31 12:47:03;;;;;;;4.10;2.67;;;26.30;37.00;;;;;;5068661;28;20536;-75
2023/05/31 12:49:31;;;;;;;5.60;3.53;;;26.30;36.50;;;;;;5071480;28;20505;-75
2023/05/31 12:51:59;;;;;;;5.63;3.00;;;26.30;36.00;;;;;;5066930;28;20451;-75
2023/05/31 12:54:30;;;;;;;5.17;3.10;;;26.20;35.20;;;;;;5066955;28;20546;-75